Colonsay, Canada
Current Conditions -  °F | °C
As of 12:00 AM on Monday 26 Jan 2015 (Local Time) from CYXE Reporting Station
Few Clouds Few Clouds  
Wind Chill: -5°   Ceiling: Unl
Heat Index:   Visibility: 15mi
Dew Point: -2°   Wind: 12mph
Humidity: 87%   Direction: 250°WSW
Pressure: 29.8"   Gusts: NA
Location:  51.97°N, 105.87°W
Report Text: CYXE 260600Z 25010KT 15SM FEW220 00/M02 A2980 RMK CI2 SLP116
Loading
Personal Weather Stations






























Interactive Weather Map New forecast layout! Learn more

10-Day Weather Forecast

Advertisements
Track Severe Weather on mobile